createdAt,value
2019-04-05T00:00:49.400Z,97995.44
2019-04-05T00:03:18.880Z,97998.90
2019-04-05T00:05:48.056Z,98007.32
2019-04-05T00:08:17.516Z,98013.34
2019-04-05T00:10:47.273Z,98012.20
2019-04-05T00:13:16.451Z,98012.67
2019-04-05T00:15:47.017Z,98008.83
2019-04-05T00:18:16.462Z,98008.56
2019-04-05T00:20:46.815Z,98009.41
2019-04-05T00:23:16.245Z,98014.54
2019-04-05T00:25:46.550Z,98013.70
2019-04-05T00:28:16.173Z,98010.44
2019-04-05T00:30:45.743Z,98007.23
2019-04-05T00:33:15.850Z,98005.35
2019-04-05T00:35:45.302Z,98010.71
2019-04-05T00:38:15.026Z,98008.66
2019-04-05T00:40:46.384Z,98016.61
2019-04-05T00:43:19.147Z,98011.27
2019-04-05T00:45:48.361Z,98011.64
2019-04-05T00:48:18.312Z,98017.73
2019-04-05T00:50:48.431Z,98015.01
2019-04-05T00:53:18.712Z,98007.51
2019-04-05T00:55:48.723Z,98000.11
2019-04-05T00:58:18.647Z,97999.09
2019-04-05T01:00:47.844Z,97992.23
2019-04-05T01:03:17.053Z,97991.84
2019-04-05T01:05:46.950Z,98001.50
2019-04-05T01:08:16.700Z,98005.91
2019-04-05T01:10:46.489Z,97997.11
2019-04-05T01:13:15.741Z,98008.34
2019-04-05T01:15:47.063Z,98008.26
2019-04-05T01:18:16.587Z,98006.75
2019-04-05T01:20:49.183Z,98015.27
2019-04-05T01:23:19.393Z,98016.89
2019-04-05T01:25:49.957Z,98023.52
2019-04-05T01:28:19.903Z,98023.05
2019-04-05T01:30:49.893Z,98033.01
2019-04-05T01:33:20.022Z,98022.52
2019-04-05T01:35:49.228Z,98026.05
2019-04-05T01:38:19.759Z,98023.70
2019-04-05T01:40:48.970Z,98019.40
2019-04-05T01:43:18.142Z,98017.80
2019-04-05T01:45:53.686Z,98013.69
2019-04-05T01:48:18.699Z,98019.13
2019-04-05T01:50:50.177Z,98029.42
2019-04-05T01:53:20.722Z,98027.37
2019-04-05T01:55:49.999Z,98013.97
2019-04-05T01:58:20.547Z,98013.41
2019-04-05T02:00:50.869Z,98016.02
2019-04-05T02:03:23.404Z,98003.55
2019-04-05T02:05:53.927Z,97995.67
2019-04-05T02:08:23.918Z,97994.20
2019-04-05T02:10:54.805Z,97999.72
2019-04-05T02:13:24.764Z,98001.77
2019-04-05T02:16:05.737Z,97993.89
2019-04-05T02:18:27.779Z,97989.23
2019-04-05T02:20:57.984Z,97991.58
2019-04-05T02:23:27.183Z,97996.26
2019-04-05T02:25:57.826Z,97991.01
2019-04-05T02:28:27.020Z,97986.02
2019-04-05T02:30:56.182Z,97974.99
2019-04-05T02:33:25.624Z,97977.80
2019-04-05T02:35:54.785Z,97980.32
2019-04-05T02:38:23.992Z,97990.27
2019-04-05T02:40:59.156Z,97990.16
2019-04-05T02:43:33.001Z,97989.95
2019-04-05T02:46:04.440Z,97997.20
2019-04-05T02:48:38.603Z,97995.32
2019-04-05T02:51:09.290Z,97997.30
2019-04-05T02:53:40.460Z,97999.45
2019-04-05T02:56:10.047Z,97999.43
2019-04-05T02:58:40.694Z,98010.59
2019-04-05T03:01:13.064Z,98004.80
2019-04-05T03:03:43.159Z,98010.69
2019-04-05T03:06:12.670Z,98010.96
2019-04-05T03:08:44.710Z,98001.69
2019-04-05T03:11:16.420Z,97996.72
2019-04-05T03:13:50.684Z,97999.46
2019-04-05T03:16:39.597Z,98001.91
2019-04-05T03:19:04.935Z,97998.88
2019-04-05T03:21:38.312Z,98001.52
2019-04-05T03:24:10.622Z,98007.30
2019-04-05T03:26:42.769Z,98008.08
2019-04-05T03:29:13.662Z,98020.91
2019-04-05T03:31:43.229Z,98021.95
2019-04-05T03:34:15.015Z,98022.98
2019-04-05T03:36:44.160Z,98024.94
2019-04-05T03:39:13.829Z,98032.34
2019-04-05T03:41:43.793Z,98031.31
2019-04-05T03:44:15.963Z,98034.97
2019-04-05T03:46:56.814Z,98027.00
2019-04-05T03:49:20.576Z,98030.67
2019-04-05T03:51:50.794Z,98030.66
2019-04-05T03:54:22.267Z,98027.86
2019-04-05T03:56:51.745Z,98017.63
2019-04-05T03:59:23.377Z,98012.86
2019-04-05T04:01:54.301Z,98014.72
2019-04-05T04:04:26.451Z,98024.00
2019-04-05T04:06:56.623Z,98029.16
2019-04-05T04:09:26.524Z,98032.52
2019-04-05T04:11:56.723Z,98036.10
2019-04-05T04:14:28.679Z,98034.59
2019-04-05T04:17:11.387Z,98034.42
2019-04-05T04:19:33.863Z,98031.39
2019-04-05T04:22:19.812Z,98027.39
2019-04-05T04:24:49.735Z,98022.84
2019-04-05T04:27:19.284Z,98028.41
2019-04-05T04:29:49.641Z,98036.08
2019-04-05T04:32:20.415Z,98038.89
2019-04-05T04:34:50.499Z,98051.06
2019-04-05T04:37:20.781Z,98054.72
2019-04-05T04:39:50.227Z,98053.62
2019-04-05T04:42:21.015Z,98052.57
2019-04-05T04:44:50.481Z,98054.18
2019-04-05T04:47:26.819Z,98066.36
2019-04-05T04:49:54.159Z,98065.03
2019-04-05T04:52:26.111Z,98088.09
2019-04-05T04:54:55.841Z,98086.18
2019-04-05T04:57:27.553Z,98093.99
2019-04-05T04:59:56.818Z,98089.11
2019-04-05T05:02:26.813Z,98091.27
2019-04-05T05:04:57.044Z,98090.42
2019-04-05T05:07:26.662Z,98080.34
2019-04-05T05:09:57.140Z,98087.48
2019-04-05T05:12:27.687Z,98080.17
2019-04-05T05:14:56.843Z,98067.32
2019-04-05T05:17:38.409Z,98063.30
2019-04-05T05:20:04.371Z,98060.94
2019-04-05T05:22:33.866Z,98057.02
2019-04-05T05:25:03.973Z,98068.06
2019-04-05T05:27:33.574Z,98079.28
2019-04-05T05:30:03.373Z,98086.11
2019-04-05T05:32:34.090Z,98076.95
2019-04-05T05:35:05.045Z,98079.67
2019-04-05T05:37:35.197Z,98081.08
2019-04-05T05:40:05.425Z,98078.08
2019-04-05T05:42:34.951Z,98065.98
2019-04-05T05:45:04.487Z,98058.66
2019-04-05T05:47:33.679Z,98048.92
2019-04-05T05:50:04.466Z,98045.36
2019-04-05T05:52:36.789Z,98050.22
2019-04-05T05:55:06.129Z,98061.88
2019-04-05T05:57:35.873Z,98062.05
2019-04-05T06:00:08.125Z,98065.98
2019-04-05T06:02:39.473Z,98067.58
2019-04-05T06:05:09.170Z,98063.72
2019-04-05T06:07:38.923Z,98066.95
2019-04-05T06:10:08.327Z,98062.82
2019-04-05T06:12:37.816Z,98064.80
2019-04-05T06:15:08.518Z,98072.28
2019-04-05T06:17:38.697Z,98077.06
2019-04-05T06:20:08.667Z,98079.80
2019-04-05T06:22:38.130Z,98082.42
2019-04-05T06:25:10.690Z,98078.31
2019-04-05T06:27:39.882Z,98080.83
2019-04-05T06:30:12.499Z,98070.26
2019-04-05T06:32:42.725Z,98064.34
2019-04-05T06:35:12.803Z,98062.09
2019-04-05T06:37:43.628Z,98066.58
2019-04-05T06:40:13.555Z,98073.59
2019-04-05T06:42:44.642Z,98074.66
2019-04-05T06:45:14.554Z,98068.94
2019-04-05T06:47:46.500Z,98068.20
2019-04-05T06:50:16.624Z,98069.69
2019-04-05T06:52:46.075Z,98066.80
2019-04-05T06:55:15.777Z,98066.32
2019-04-05T06:57:44.905Z,98069.02
2019-04-05T07:00:16.024Z,98074.19
2019-04-05T07:02:46.698Z,98076.71
2019-04-05T07:05:16.003Z,98077.59
2019-04-05T07:07:45.313Z,98078.43
2019-04-05T07:10:16.461Z,98077.76
2019-04-05T07:12:45.521Z,98082.54
2019-04-05T07:15:14.904Z,98081.33
2019-04-05T07:17:44.233Z,98075.88
2019-04-05T07:20:13.566Z,98086.21
2019-04-05T07:22:43.830Z,98088.74
2019-04-05T07:25:13.465Z,98082.81
2019-04-05T07:27:43.002Z,98087.05
2019-04-05T07:30:13.370Z,98081.60
2019-04-05T07:32:45.278Z,98089.85
2019-04-05T07:35:14.804Z,98085.81
2019-04-05T07:37:44.413Z,98087.05
2019-04-05T07:40:14.402Z,98090.15
2019-04-05T07:42:44.033Z,98092.10
2019-04-05T07:45:13.651Z,98086.40
2019-04-05T07:47:42.844Z,98096.44
2019-04-05T07:50:14.239Z,98095.13
2019-04-05T07:52:43.440Z,98101.38
2019-04-05T07:55:14.681Z,98108.16
2019-04-05T07:57:43.911Z,98106.17
2019-04-05T08:00:40.305Z,98102.44
2019-04-05T08:03:09.499Z,98098.77
2019-04-05T08:05:38.785Z,98101.58
2019-04-05T08:08:18.068Z,98097.09
2019-04-05T08:10:47.438Z,98102.05
2019-04-05T08:13:17.296Z,98100.18
2019-04-05T08:15:46.777Z,98101.77
2019-04-05T08:18:17.073Z,98100.92
2019-04-05T08:20:46.287Z,98096.98
2019-04-05T08:23:16.293Z,98101.20
2019-04-05T08:25:46.280Z,98103.84
2019-04-05T08:28:16.736Z,98113.77
2019-04-05T08:30:46.390Z,98107.13
2019-04-05T08:33:18.235Z,98103.63
2019-04-05T08:35:47.679Z,98105.82
2019-04-05T08:38:17.474Z,98103.94
2019-04-05T08:40:46.661Z,98101.20
2019-04-05T08:43:20.861Z,98101.20
2019-04-05T08:45:50.270Z,98112.50
2019-04-05T08:48:19.449Z,98105.72
2019-04-05T08:50:48.642Z,98103.20
2019-04-05T08:53:18.102Z,98104.05
2019-04-05T08:55:49.822Z,98102.05
2019-04-05T08:58:19.032Z,98102.16
2019-04-05T09:00:48.278Z,98106.63
2019-04-05T09:03:19.058Z,98103.30
2019-04-05T09:05:48.217Z,98100.27
2019-04-05T09:08:17.466Z,98110.67
2019-04-05T09:10:46.889Z,98116.67
2019-04-05T09:13:18.274Z,98123.61
2019-04-05T09:15:47.450Z,98119.97
2019-04-05T09:18:17.197Z,98115.98
2019-04-05T09:20:46.471Z,98119.24
2019-04-05T09:23:17.690Z,98118.59
2019-04-05T09:25:47.499Z,98129.28
2019-04-05T09:28:17.352Z,98128.27
2019-04-05T09:30:46.660Z,98121.98
2019-04-05T09:33:16.635Z,98126.39
2019-04-05T09:35:45.823Z,98129.96
2019-04-05T09:38:15.314Z,98128.45
2019-04-05T09:40:44.737Z,98125.82
2019-04-05T09:43:15.857Z,98125.91
2019-04-05T09:45:48.286Z,98124.44
2019-04-05T09:48:17.854Z,98132.17
2019-04-05T09:50:52.403Z,98128.07
2019-04-05T09:53:23.102Z,98123.12
2019-04-05T09:55:52.567Z,98121.97
2019-04-05T09:58:21.768Z,98124.11
2019-04-05T10:00:52.773Z,98123.63
2019-04-05T10:03:23.359Z,98126.05
2019-04-05T10:05:53.176Z,98123.66
2019-04-05T10:08:24.221Z,98120.45
2019-04-05T10:10:53.389Z,98124.50
2019-04-05T10:13:22.695Z,98127.16
2019-04-05T10:15:51.865Z,98131.22
2019-04-05T10:18:21.076Z,98130.29
2019-04-05T10:20:50.308Z,98122.71
2019-04-05T10:23:19.499Z,98120.66
2019-04-05T10:25:49.786Z,98120.91
2019-04-05T10:28:23.580Z,98120.91
2019-04-05T10:30:53.012Z,98113.48
2019-04-05T10:33:24.074Z,98121.50
2019-04-05T10:35:53.576Z,98117.38
2019-04-05T10:38:25.206Z,98123.77
2019-04-05T10:40:54.967Z,98122.72
2019-04-05T10:43:28.184Z,98119.40
2019-04-05T10:45:57.938Z,98117.77
2019-04-05T10:48:27.145Z,98119.40
2019-04-05T10:50:56.398Z,98117.29
2019-04-05T10:53:25.867Z,98116.16
2019-04-05T10:55:55.501Z,98109.54
2019-04-05T10:58:24.708Z,98121.17
2019-04-05T11:00:53.964Z,98113.96
2019-04-05T11:03:23.474Z,98115.14
2019-04-05T11:05:53.396Z,98112.03
2019-04-05T11:08:23.339Z,98108.11
2019-04-05T11:10:53.125Z,98100.77
2019-04-05T11:13:22.583Z,98106.88
2019-04-05T11:15:54.476Z,98105.08
2019-04-05T11:18:25.057Z,98103.29
2019-04-05T11:20:54.333Z,98095.34
2019-04-05T11:23:24.717Z,98094.97
2019-04-05T11:25:56.087Z,98091.61
2019-04-05T11:28:25.267Z,98085.32
2019-04-05T11:30:54.455Z,98084.61
2019-04-05T11:33:24.011Z,98082.11
2019-04-05T11:35:53.228Z,98086.02
2019-04-05T11:38:25.272Z,98081.13
2019-04-05T11:40:54.918Z,98082.48
2019-04-05T11:43:30.958Z,98084.47
2019-04-05T11:46:18.438Z,98081.05
2019-04-05T11:48:48.272Z,98076.15
2019-04-05T11:51:19.478Z,98069.67
2019-04-05T11:53:48.673Z,98073.40
2019-04-05T11:56:21.303Z,98070.53
2019-04-05T11:58:51.536Z,98072.27
2019-04-05T12:01:23.968Z,98079.28
2019-04-05T12:03:53.325Z,98068.80
2019-04-05T12:06:23.664Z,98063.45
2019-04-05T12:08:53.260Z,98063.33
2019-04-05T12:11:22.470Z,98058.42
2019-04-05T12:13:51.646Z,98061.50
2019-04-05T12:16:20.876Z,98065.76
2019-04-05T12:18:50.330Z,98061.98
2019-04-05T12:21:20.989Z,98061.09
2019-04-05T12:23:50.372Z,98057.91
2019-04-05T12:26:19.931Z,98062.39
2019-04-05T12:28:49.411Z,98052.34
2019-04-05T12:31:18.695Z,98053.05
2019-04-05T12:33:51.364Z,98047.30
2019-04-05T12:36:21.954Z,98045.25
2019-04-05T12:38:49.730Z,98047.89
2019-04-05T12:41:18.963Z,98046.77
2019-04-05T12:43:50.806Z,98036.27
2019-04-05T12:46:19.176Z,98035.44
2019-04-05T12:48:48.844Z,98030.66
2019-04-05T12:51:18.071Z,98029.64
2019-04-05T12:53:47.265Z,98022.33
2019-04-05T12:56:21.350Z,98029.44
2019-04-05T12:58:51.159Z,98026.56
2019-04-05T13:01:21.498Z,98024.60
2019-04-05T13:03:52.092Z,98024.92
2019-04-05T13:06:22.467Z,98024.05
2019-04-05T13:08:53.751Z,98026.53
2019-04-05T13:11:26.741Z,98027.52
2019-04-05T13:13:56.384Z,98025.13
2019-04-05T13:16:26.302Z,98026.33
2019-04-05T13:18:55.459Z,98023.97
2019-04-05T13:21:27.625Z,98022.53
2019-04-05T13:23:55.934Z,98030.81
2019-04-05T13:26:26.463Z,98023.85
2019-04-05T13:28:56.539Z,98015.42
2019-04-05T13:31:25.719Z,98019.84
2019-04-05T13:33:55.659Z,98009.97
2019-04-05T13:36:25.936Z,98014.05
2019-04-05T13:38:55.444Z,98017.00
2019-04-05T13:41:26.546Z,98020.09
2019-04-05T13:43:55.795Z,98015.89
2019-04-05T13:46:26.241Z,98019.02
2019-04-05T13:48:55.546Z,98016.62
2019-04-05T13:51:28.119Z,98016.14
2019-04-05T13:53:55.926Z,98014.17
2019-04-05T13:56:25.327Z,98011.21
2019-04-05T13:58:54.535Z,98004.49
2019-04-05T14:01:24.073Z,98002.69
2019-04-05T14:03:58.454Z,98002.54
2019-04-05T14:06:30.376Z,98001.58
2019-04-05T14:08:59.728Z,98001.78
2019-04-05T14:11:29.871Z,97998.90
2019-04-05T14:13:59.063Z,98000.46
2019-04-05T14:16:28.641Z,97994.11
2019-04-05T14:18:58.320Z,97990.78
2019-04-05T14:21:39.803Z,97986.02
2019-04-05T14:24:00.535Z,97984.75
2019-04-05T14:26:32.753Z,97987.78
2019-04-05T14:29:03.670Z,97987.91
2019-04-05T14:31:33.606Z,97987.75
2019-04-05T14:34:05.929Z,97982.95
2019-04-05T14:36:36.172Z,97984.03
2019-04-05T14:39:08.975Z,97990.50
2019-04-05T14:41:40.215Z,97980.55
2019-04-05T14:44:09.918Z,97986.70
2019-04-05T14:46:39.928Z,97983.73
2019-04-05T14:49:09.120Z,97985.59
2019-04-05T14:51:38.307Z,97976.02
2019-04-05T14:54:09.966Z,97977.70
2019-04-05T14:56:38.943Z,97974.23
2019-04-05T14:59:08.932Z,97972.31
2019-04-05T15:01:38.907Z,97977.70
2019-04-05T15:04:08.448Z,97985.50
2019-04-05T15:06:37.923Z,97982.66
2019-04-05T15:09:07.881Z,97989.64
2019-04-05T15:11:37.067Z,97986.38
2019-04-05T15:14:06.551Z,97989.25
2019-04-05T15:16:36.494Z,97987.58
2019-04-05T15:19:06.035Z,97987.33
2019-04-05T15:21:38.802Z,97983.62
2019-04-05T15:24:08.855Z,97982.41
2019-04-05T15:26:38.535Z,97982.75
2019-04-05T15:29:07.968Z,97989.73
2019-04-05T15:31:37.446Z,97986.34
2019-04-05T15:34:06.909Z,97983.85
2019-04-05T15:36:36.073Z,97984.94
2019-04-05T15:39:09.228Z,97984.70
2019-04-05T15:41:38.446Z,97983.97
2019-04-05T15:44:08.633Z,97980.02
2019-04-05T15:46:38.391Z,97982.63
2019-04-05T15:49:07.880Z,97976.27
2019-04-05T15:51:37.426Z,97972.43
2019-04-05T15:54:06.879Z,97977.11
2019-04-05T15:56:39.193Z,97974.20
2019-04-05T15:59:08.657Z,97986.58
2019-04-05T16:01:38.897Z,97978.55
2019-04-05T16:04:08.062Z,97975.78
2019-04-05T16:06:39.139Z,97985.02
2019-04-05T16:09:11.823Z,97983.82
2019-04-05T16:11:42.310Z,97989.34
2019-04-05T16:14:12.004Z,97988.11
2019-04-05T16:16:41.211Z,97985.11
2019-04-05T16:19:10.926Z,97981.27
2019-04-05T16:21:40.721Z,97982.20
2019-04-05T16:24:10.170Z,97981.00
2019-04-05T16:26:39.463Z,97988.79
2019-04-05T16:29:08.662Z,97991.91
2019-04-05T16:31:38.478Z,98000.22
2019-04-05T16:34:09.320Z,98011.97
2019-04-05T16:36:41.417Z,98013.86
2019-04-05T16:39:19.304Z,98013.30
2019-04-05T16:41:52.064Z,98023.13
2019-04-05T16:44:21.289Z,98023.22
2019-04-05T16:46:51.328Z,98024.17
2019-04-05T16:49:23.342Z,98020.94
2019-04-05T16:51:55.061Z,98023.22
2019-04-05T16:54:24.532Z,98023.33
2019-04-05T16:56:53.855Z,98033.45
2019-04-05T16:59:24.126Z,98035.48
2019-04-05T17:01:56.641Z,98034.05
2019-04-05T17:04:25.109Z,98034.88
2019-04-05T17:06:54.316Z,98036.41
2019-04-05T17:09:25.667Z,98039.64
2019-04-05T17:11:58.222Z,98044.20
2019-04-05T17:14:27.464Z,98044.36
2019-04-05T17:16:56.649Z,98046.16
2019-04-05T17:19:25.840Z,98049.64
2019-04-05T17:21:55.485Z,98049.40
2019-04-05T17:24:24.667Z,98047.67
2019-04-05T17:26:54.211Z,98040.08
2019-04-05T17:29:23.586Z,98042.76
2019-04-05T17:31:55.028Z,98040.20
2019-04-05T17:34:24.422Z,98039.72
2019-04-05T17:36:54.289Z,98043.06
2019-04-05T17:39:23.700Z,98040.03
2019-04-05T17:41:55.378Z,98039.50
2019-04-05T17:44:25.724Z,98045.09
2019-04-05T17:46:59.527Z,98055.08
2019-04-05T17:49:29.035Z,98048.73
2019-04-05T17:51:58.215Z,98055.81
2019-04-05T17:54:27.903Z,98056.82
2019-04-05T17:56:57.088Z,98058.73
2019-04-05T17:59:26.626Z,98059.30
2019-04-05T18:01:56.076Z,98057.42
2019-04-05T18:04:25.281Z,98067.05
2019-04-05T18:06:54.478Z,98073.06
2019-04-05T18:09:27.193Z,98063.73
2019-04-05T18:11:58.565Z,98056.30
2019-04-05T18:14:30.568Z,98064.58
2019-04-05T18:17:01.004Z,98070.66
2019-04-05T18:19:30.596Z,98071.45
2019-04-05T18:21:59.850Z,98077.73
2019-04-05T18:24:29.050Z,98072.77
2019-04-05T18:26:58.232Z,98076.97
2019-04-05T18:29:29.332Z,98071.17
2019-04-05T18:31:58.797Z,98068.35
2019-04-05T18:34:31.476Z,98069.05
2019-04-05T18:37:00.728Z,98074.81
2019-04-05T18:39:30.339Z,98077.10
2019-04-05T18:41:59.650Z,98086.27
2019-04-05T18:44:29.386Z,98081.63
2019-04-05T18:46:59.323Z,98086.03
2019-04-05T18:49:28.749Z,98089.38
2019-04-05T18:51:58.191Z,98090.87
2019-04-05T18:54:27.957Z,98092.62
2019-04-05T18:57:05.689Z,98097.83
2019-04-05T18:59:35.987Z,98101.14
2019-04-05T19:02:06.553Z,98101.19
2019-04-05T19:04:36.439Z,98102.51
2019-04-05T19:07:09.187Z,98100.34
2019-04-05T19:09:42.829Z,98104.77
2019-04-05T19:12:12.595Z,98093.02
2019-04-05T19:14:47.153Z,98101.06
2019-04-05T19:17:23.719Z,98111.00
2019-04-05T19:19:48.200Z,98102.50
2019-04-05T19:22:17.373Z,98104.44
2019-04-05T19:24:48.476Z,98104.80
2019-04-05T19:27:18.181Z,98103.17
2019-04-05T19:29:47.434Z,98108.39
2019-04-05T19:50:00.104Z,98113.11
2019-04-05T19:52:30.584Z,98111.78
2019-04-05T19:54:59.862Z,98119.41
2019-04-05T19:57:30.350Z,98116.47
2019-04-05T20:00:00.095Z,98112.63
2019-04-05T20:02:30.280Z,98112.40
2019-04-05T20:04:59.491Z,98120.06
2019-04-05T20:07:28.952Z,98115.62
2019-04-05T20:09:58.463Z,98112.40
2019-04-05T20:12:28.754Z,98114.03
2019-04-05T20:14:57.951Z,98120.79
2019-04-05T20:17:27.465Z,98116.47
2019-04-05T20:19:56.734Z,98113.13
2019-04-05T20:22:25.937Z,98112.23
2019-04-05T20:24:55.164Z,98111.55
2019-04-05T20:27:25.944Z,98104.59
2019-04-05T20:30:00.246Z,98105.91
2019-04-05T20:32:31.945Z,98113.55
2019-04-05T20:35:01.160Z,98110.07
2019-04-05T20:37:31.086Z,98106.45
2019-04-05T20:40:01.527Z,98104.55
2019-04-05T20:42:31.652Z,98106.23
2019-04-05T20:45:01.989Z,98109.83
2019-04-05T20:47:31.588Z,98110.41
2019-04-05T20:50:01.626Z,98102.73
2019-04-05T20:52:31.353Z,98105.67
2019-04-05T20:55:01.086Z,98108.56
2019-04-05T20:57:30.423Z,98104.36
2019-04-05T21:00:00.903Z,98105.20
2019-04-05T21:02:30.174Z,98105.00
2019-04-05T21:05:04.738Z,98105.37
2019-04-05T21:07:34.217Z,98105.98
2019-04-05T21:10:07.407Z,98105.86
2019-04-05T21:12:36.614Z,98109.98
2019-04-05T21:15:06.100Z,98109.76
2019-04-05T21:17:36.668Z,98107.60
2019-04-05T21:20:07.682Z,98107.83
2019-04-05T21:22:36.891Z,98106.39
2019-04-05T21:25:06.451Z,98104.23
2019-04-05T21:27:35.666Z,98102.21
2019-04-05T21:30:05.473Z,98109.05
2019-04-05T21:32:34.663Z,98105.58
2019-04-05T21:35:05.597Z,98105.46
2019-04-05T21:37:35.105Z,98109.89
2019-04-05T21:40:06.672Z,98106.89
2019-04-05T21:42:37.166Z,98109.78
2019-04-05T21:45:09.780Z,98114.97
2019-04-05T21:47:38.992Z,98109.47
2019-04-05T21:50:09.997Z,98110.39
2019-04-05T21:52:39.472Z,98106.52
2019-04-05T21:55:08.750Z,98110.64
2019-04-05T21:57:38.244Z,98115.56
2019-04-05T22:00:13.653Z,98110.16
2019-04-05T22:02:44.179Z,98102.84
2019-04-05T22:05:13.861Z,98108.41
2019-04-05T22:07:43.537Z,98107.75
2019-04-05T22:10:13.200Z,98110.41
2019-04-05T22:12:43.635Z,98111.42
2019-04-05T22:15:12.806Z,98108.67
2019-04-05T22:17:42.259Z,98112.91
2019-04-05T22:20:11.874Z,98112.55
2019-04-05T22:22:41.420Z,98114.34
2019-04-05T22:25:10.731Z,98108.31
2019-04-05T22:27:40.672Z,98110.87
2019-04-05T22:30:10.071Z,98110.87
2019-04-05T22:32:39.240Z,98117.37
2019-04-05T22:35:09.268Z,98116.52
2019-04-05T22:37:40.826Z,98117.71
2019-04-05T22:40:10.514Z,98115.27
2019-04-05T22:42:40.351Z,98117.46
2019-04-05T22:45:09.748Z,98121.78
2019-04-05T22:47:38.911Z,98115.86
2019-04-05T22:50:08.618Z,98123.98
2019-04-05T22:52:39.766Z,98116.83
2019-04-05T22:55:11.431Z,98122.77
2019-04-05T22:57:42.859Z,98124.20
2019-04-05T23:00:14.219Z,98127.94
2019-04-05T23:02:44.202Z,98128.24
2019-04-05T23:05:13.541Z,98124.94
2019-04-05T23:07:42.995Z,98125.89
2019-04-05T23:10:12.692Z,98119.77
2019-04-05T23:12:43.140Z,98123.06
2019-04-05T23:15:12.664Z,98123.54
2019-04-05T23:17:42.114Z,98118.03
2019-04-05T23:20:12.556Z,98122.70
2019-04-05T23:22:42.527Z,98130.61
2019-04-05T23:25:21.521Z,98122.83
2019-04-05T23:27:43.155Z,98130.27
2019-04-05T23:30:14.355Z,98125.16
2019-04-05T23:32:43.522Z,98122.30
2019-04-05T23:35:12.720Z,98122.66
2019-04-05T23:37:41.902Z,98123.13
2019-04-05T23:40:13.532Z,98121.50
2019-04-05T23:42:43.027Z,98121.62
2019-04-05T23:45:14.034Z,98123.98
2019-04-05T23:47:43.302Z,98122.30
2019-04-05T23:50:12.626Z,98122.66
2019-04-05T23:52:42.060Z,98127.57
2019-04-05T23:55:11.581Z,98129.84
2019-04-05T23:57:40.763Z,98124.69
